This is the latest recevied weather packets stored in our database for station/object DO2TC-13. If no packets are shown the sender has not sent any weather packets the latest 10 day(s).
| Time | Temp. | Humidity | Pressure | Rain* | Wind** | Luminosity | Snow |
|---|---|---|---|---|---|---|---|
| 1777492538 | 5.56° C | 62% | 1030.4 hPa | 0 mm | - | 0 W/m² | - |
| 1777488947 | 8.33° C | 51% | 1029.9 hPa | 0 mm | - | 0 W/m² | - |
| 1777487130 | 10° C | 45% | 1029.6 hPa | 0 mm | - | 11 W/m² | - |
| 1777481141 | 13.33° C | 35% | 1029.6 hPa | 0 mm | - | 150 W/m² | - |
| 1777477570 | 14.44° C | 32% | 1029.5 hPa | 0 mm | - | 309 W/m² | - |
| 1777473938 | 14.44° C | 31% | 1029.6 hPa | 0 mm | - | 491 W/m² | - |
| 1777387015 | 13.89° C | 37% | 1025.6 hPa | 0 mm | - | 510 W/m² | - |
| 1777375537 | 14.44° C | 34% | 1025.8 hPa | 0 mm | - | 862 W/m² | - |
| 1777373174 | 14.44° C | 35% | 1026 hPa | 0 mm | - | 817 W/m² | - |
| 1777371962 | 13.89° C | 34% | 1026.1 hPa | 0 mm | - | 831 W/m² | - |
| 1777370753 | 14.44° C | 34% | 1026.1 hPa | 0 mm | - | 799 W/m² | - |
| 1777368938 | 13.33° C | 32% | 1026.3 hPa | 0 mm | - | 748 W/m² | - |
| 1777366517 | 12.78° C | 31% | 1026.5 hPa | 0 mm | - | 674 W/m² | - |
| 1777363556 | 12.22° C | 32% | 1026.4 hPa | 0 mm | - | 516 W/m² | - |
| 1777360528 | 10° C | 41% | 1026.2 hPa | 0 mm | - | 425 W/m² | - |
| 1777359922 | 9.44° C | 41% | 1026.2 hPa | 0 mm | - | 396 W/m² | - |
| 1777356369 | 6.67° C | 62% | 1026.3 hPa | 0 mm | - | 219 W/m² | - |
| 1777354554 | 4.44° C | 78% | 1026.1 hPa | 0 mm | - | 143 W/m² | - |
| 1777353928 | 2.78° C | 80% | 1026.1 hPa | 0 mm | - | 123 W/m² | - |
| 1777350360 | -1.11° C | 91% | 1025.6 hPa | 0 mm | - | 41 W/m² | - |
| 1777349149 | - | - | 1025.5 hPa | 0 mm | - | 19 W/m² | - |
| 1777345518 | - | - | 1025.5 hPa | 0 mm | - | 0 W/m² | - |
| 1777344367 | - | - | 1025.4 hPa | 0 mm | - | 0 W/m² | - |
| 1777341946 | - | - | 1025.2 hPa | 0 mm | - | 0 W/m² | - |
| 1777340131 | - | - | 1025.1 hPa | 0 mm | - | 0 W/m² | - |
* Rain latest hour (hover to see other rain measurements)
** Current wind speed in m/s (hover to see current wind gust speed)